TimeCDT,TemperatureF,Dew PointF,Humidity,Sea Level PressureIn,VisibilityMPH,Wind Direction,Wind SpeedMPH,Gust SpeedMPH,PrecipitationIn,Events,Conditions,WindDirDegrees,DateUTC
12:52 AM,25.0,21.0,85,30.51,10.0,Calm,Calm,-,N/A,,Scattered Clouds,0,2012-10-06 05:52:00
1:52 AM,25.0,21.9,88,30.50,10.0,Calm,Calm,-,N/A,,Overcast,0,2012-10-06 06:52:00
2:52 AM,19.9,18.0,92,30.51,10.0,Calm,Calm,-,N/A,,Clear,0,2012-10-06 07:52:00
3:52 AM,19.9,18.0,92,30.50,10.0,Calm,Calm,-,N/A,,Clear,0,2012-10-06 08:52:00
4:52 AM,19.9,17.1,89,30.50,10.0,Calm,Calm,-,N/A,,Clear,0,2012-10-06 09:52:00
5:52 AM,18.0,17.1,96,30.50,10.0,Calm,Calm,-,N/A,,Clear,0,2012-10-06 10:52:00
6:52 AM,17.6,17.6,100,30.40,10.0,Calm,Calm,-,N/A,,Clear,0,2012-10-06 11:52:00
7:52 AM,18.0,16.0,92,30.51,10.0,Calm,Calm,-,N/A,,Clear,0,2012-10-06 12:52:00
8:52 AM,21.0,18.0,88,30.50,10.0,Calm,Calm,-,N/A,,Clear,0,2012-10-06 13:52:00
9:52 AM,25.0,23.0,92,30.48,10.0,SSW,5.8,-,N/A,,Clear,200,2012-10-06 14:52:00
10:52 AM,30.9,23.0,72,30.46,10.0,SSW,6.9,-,N/A,,Clear,210,2012-10-06 15:52:00
11:52 AM,36.0,24.1,62,30.43,10.0,SW,9.2,-,N/A,,Clear,220,2012-10-06 16:52:00
12:52 PM,41.0,24.1,51,30.40,10.0,SSW,10.4,-,N/A,,Clear,210,2012-10-06 17:52:00
1:52 PM,45.0,23.0,42,30.37,10.0,WSW,6.9,16.1,N/A,,Clear,250,2012-10-06 18:52:00
2:52 PM,46.9,21.9,37,30.33,10.0,West,13.8,18.4,N/A,,Partly Cloudy,260,2012-10-06 19:52:00
3:52 PM,48.0,21.0,34,30.30,10.0,West,15.0,21.9,N/A,,Clear,270,2012-10-06 20:52:00
4:52 PM,48.2,21.2,34,30.19,10.0,WSW,12.7,-,N/A,,Clear,250,2012-10-06 21:52:00
5:52 PM,48.2,21.2,34,30.17,10.0,West,12.7,-,N/A,,Clear,260,2012-10-06 22:52:00
6:52 PM,46.0,21.0,37,30.23,10.0,WSW,8.1,-,N/A,,Clear,250,2012-10-06 23:52:00
7:52 PM,39.9,21.9,49,30.23,10.0,WSW,5.8,-,N/A,,Clear,250,2012-10-07 00:52:00
8:52 PM,35.1,23.0,61,30.21,10.0,SSW,4.6,-,N/A,,Clear,210,2012-10-07 01:52:00
9:52 PM,36.0,23.0,59,30.18,10.0,SSW,3.5,-,N/A,,Clear,200,2012-10-07 02:52:00
10:52 PM,33.1,24.1,70,30.17,10.0,SW,4.6,-,N/A,,Clear,230,2012-10-07 03:52:00
11:52 PM,30.0,23.0,75,30.14,10.0,SSW,5.8,-,N/A,,Clear,210,2012-10-07 04:52:00